NY/NJ Local METAR Reports

 HOBOKEN  -  Coastal Flood Advisory Coastal Flood Advisory     Coastal Flood Statement Coastal Flood Statement  
KNYC - NYC/Central Park, NY, USA
Distance from station: NE 4mi, 7km
Updated: 09/19/2020 2:51pm
Clear
Clear
 Wind from varies
Wind: varies 3 mph , 6 km/h
Temperature: 63°F , 17°C
Dew Point: 28°F , -2°C
Humidity: 27%
Barometer: 30.34 inHg , 1027.4 hPa
Clouds: Clear
Visibility: 10 miles , 16 km
2020/09/19 18:51 KNYC 191851Z AUTO VRB03KT 10SM CLR 17/M02 A3034 RMK AO2 SLP265 T01721017 $
KEWR - Newark, NJ, USA
Distance from station: WSW 8mi, 13km
Updated: 09/19/2020 2:51pm
Few Clouds
Few Clouds
 Wind from N
Wind: N 7 mph , 11 km/h
Temperature: 64°F , 18°C
Dew Point: 28°F , -2°C
Humidity: 26%
Barometer: 30.32 inHg , 1026.8 hPa
Clouds: Few Clouds
Visibility: 10 miles , 16 km
Cloud details: Few Clouds 25000 ft
2020/09/19 18:51 KEWR 191851Z 36006KT 10SM FEW250 18/M02 A3032 RMK AO2 SLP267 T01831022
 
KLGA - NYC/La Guardia, NY, USA
Distance from station: ENE 8mi, 13km
Updated: 09/19/2020 2:51pm
Few Clouds
Few Clouds
 Wind from NNW
Wind: NNW 7 mph , 11 km/h
Temperature: 64°F , 18°C
Dew Point: 28°F , -2°C
Humidity: 26%
Barometer: 30.31 inHg , 1026.4 hPa
Clouds: Few Clouds
Visibility: 10 miles , 16 km
Cloud details: Few Clouds 25000 ft
2020/09/19 18:51 KLGA 191851Z 33006KT 10SM FEW250 18/M02 A3031 RMK AO2 SLP263 T01781017 $
KTEB - Teterboro, NJ, USA
Distance from station: N 9mi, 14km
Updated: 09/19/2020 2:51pm
Clear
Clear
 Wind from ENE
Wind: ENE 9 mph , 15 km/h
Temperature: 63°F , 17°C
Dew Point: 28°F , -2°C
Humidity: 27%
Barometer: 30.31 inHg , 1026.4 hPa
Clouds: Clear
Visibility: 10 miles , 16 km
2020/09/19 18:51 KTEB 191851Z 06008KT 10SM CLR 17/M02 A3031 RMK AO2 SLP264 T01721022 $
 
KJFK - NYC/Jfk Arpt, NY, USA
Distance from station: ESE 16mi, 25km
Updated: 09/19/2020 2:51pm
Few Clouds
Few Clouds
 Wind from N
Wind: N 13 mph , 20 km/h, Gust: 21 mph , 33 km/h
Temperature: 64°F , 18°C
Dew Point: 27°F , -3°C
Humidity: 24%
Barometer: 30.32 inHg , 1026.8 hPa
Clouds: Few Clouds
Visibility: 10 miles , 16 km
Cloud details: Few Clouds 25000 ft
2020/09/19 18:51 KJFK 191851Z 35011G18KT 10SM FEW250 18/M03 A3032 RMK AO2 SLP267 T01781028 $
KCDW - Caldwell, NJ, USA
Distance from station: NW 16mi, 26km
Updated: 09/19/2020 2:53pm
Clear
Clear
 Wind from varies
Wind: varies 7 mph , 11 km/h
Temperature: 64°F , 18°C
Dew Point: 28°F , -2°C
Humidity: 26%
Barometer: 30.33 inHg , 1027.1 hPa
Clouds: Clear
Visibility: 10 miles , 16 km
2020/09/19 18:53 KCDW 191853Z VRB06KT 10SM CLR 18/M02 A3033 RMK AO2 SLP276 T01781017
 
KMMU - Morristown Muni, NJ, USA
Distance from station: W 20mi, 33km
Updated: 09/19/2020 2:45pm
Clear
Clear
 Wind from ENE
Wind: ENE 7 mph , 11 km/h, Gust: 15 mph , 24 km/h
Temperature: 63°F , 17°C
Dew Point: 36°F , 2°C
Humidity: 37%
Barometer: 30.33 inHg , 1027.1 hPa
Clouds: Clear
Visibility: 10 miles , 16 km
2020/09/19 18:45 KMMU 191845Z 06006G13KT 10SM SKC 17/02 A3033
KHPN - White Plains, NY, USA
Distance from station: NE 28mi, 46km
Updated: 09/19/2020 2:56pm
Clear
Clear
 Wind from NNW
Wind: NNW 10 mph , 17 km/h
Temperature: 61°F , 16°C
Dew Point: 25°F , -4°C
Humidity: 25%
Barometer: 30.31 inHg , 1026.4 hPa
Clouds: Clear
Visibility: 10 miles , 16 km
2020/09/19 18:56 KHPN 191856Z 34009KT 10SM CLR 16/M04 A3031 RMK AO2 SLP264 T01611039
 
KFRG - Farmingdale, NY, USA
Distance from station: E 32mi, 52km
Updated: 09/19/2020 2:53pm
Clear
Clear
 Wind from N
Wind: N 9 mph , 15 km/h
Temperature: 63°F , 17°C
Dew Point: 28°F , -2°C
Humidity: 27%
Barometer: 30.31 inHg , 1026.4 hPa
Clouds: Clear
Visibility: 10 miles , 16 km
2020/09/19 18:53 KFRG 191853Z AUTO 35008KT 10SM CLR 17/M02 A3031 RMK AO2 SLP263 T01721022
KSMQ - Somerville, NJ, USA
Distance from station: WSW 34mi, 55km
Updated: 09/19/2020 2:53pm
Clear
Clear
 Wind from varies
Wind: varies 6 mph , 9 km/h
Temperature: 64°F , 18°C
Dew Point: 32°F , 0°C
Humidity: 30%
Barometer: 30.31 inHg , 1026.4 hPa
Clouds: Clear
Visibility: 10 miles , 16 km
2020/09/19 18:53 KSMQ 191853Z AUTO VRB05KT 10SM CLR 18/00 A3031 RMK AO2 SLP266 T01780000
 
KBLM - Belmar/Farmdale, NJ, USA
Distance from station: S 40mi, 64km
Updated: 09/19/2020 2:56pm
Clear
Clear
 Wind from NW
Wind: NW 7 mph , 11 km/h
Temperature: 63°F , 17°C
Dew Point: 30°F , -1°C
Humidity: 30%
Barometer: 30.32 inHg , 1026.8 hPa
Clouds: Clear
Visibility: 10 miles , 16 km
2020/09/19 18:56 KBLM 191856Z AUTO 31006KT 10SM CLR 17/M01 A3032 RMK AO2 SLP268 T01721006
K12N - Andover, NJ, USA
Distance from station: WNW 41mi, 67km
Updated: 09/19/2020 2:54pm

 Wind from calm
Wind: Calm
Temperature: 61°F , 16°C
Dew Point: 34°F , 1°C
Humidity: 36%
Barometer: 30.33 inHg , 1027.1 hPa
2020/09/19 18:54 K12N 191854Z AUTO 00000KT 16/01 A3033 RMK AO1 SLP274 T01610006
 
KFWN - Sussex, NJ, USA
Distance from station: NW 45mi, 72km
Updated: 09/19/2020 2:53pm
Clear
Clear
 Wind from E
Wind: E 5 mph , 7 km/h
Temperature: 63°F , 17°C
Dew Point: 34°F , 1°C
Humidity: 34%
Barometer: 30.33 inHg , 1027.1 hPa
Clouds: Clear
Visibility: 10 miles , 16 km
2020/09/19 18:53 KFWN 191853Z AUTO 08004KT 10SM CLR 17/01 A3033 RMK AO2 SLP271 T01670011
KISP - Islip, NY, USA
Distance from station: E 49mi, 79km
Updated: 09/19/2020 2:56pm
Few Clouds
Few Clouds
 Wind from NW
Wind: NW 12 mph , 19 km/h
Temperature: 63°F , 17°C
Dew Point: 30°F , -1°C
Humidity: 30%
Barometer: 30.30 inHg , 1026.1 hPa
Clouds: Few Clouds
Visibility: 10 miles , 16 km
Cloud details: Few Clouds 25000 ft
2020/09/19 18:56 KISP 191856Z 32010KT 10SM FEW250 17/M01 A3030 RMK AO2 SLP261 T01671011